Time;durP1;ratioP1;P1;durP2;ratioP2;P2;SDS_P1;SDS_P2;PMS_P1;PMS_P2;Temp;Humidity;BMP_temperature;BMP_pressure;BME280_temperature;BME280_humidity;BME280_pressure;Samples;Min_cycle;Max_cycle;Signal;HPM_P1;HPM_P2
2022/05/15 00:02:28;;;;;;;45.30;11.05;;;12.40;99.90;;;;;;5039278;28;20024;-77
2022/05/15 00:04:53;;;;;;;39.20;11.13;;;12.30;99.90;;;;;;5035329;28;20112;-76
2022/05/15 00:07:19;;;;;;;41.25;11.20;;;12.30;99.90;;;;;;5036823;28;20033;-77
2022/05/15 00:09:45;;;;;;;27.83;9.75;;;12.30;99.90;;;;;;5037243;28;20033;-76
2022/05/15 00:12:11;;;;;;;38.25;10.05;;;12.30;99.90;;;;;;5037278;28;20032;-77
2022/05/15 00:14:36;;;;;;;45.45;10.73;;;12.30;99.90;;;;;;5039994;28;20045;-78
2022/05/15 00:17:02;;;;;;;40.83;11.38;;;12.20;99.90;;;;;;5042362;28;20033;-77
2022/05/15 00:19:28;;;;;;;34.03;10.50;;;12.20;99.90;;;;;;5048924;28;20032;-78
2022/05/15 00:21:54;;;;;;;32.95;10.32;;;12.20;99.90;;;;;;5043782;28;20030;-77
2022/05/15 00:24:20;;;;;;;32.10;10.73;;;12.20;99.90;;;;;;5044416;28;20081;-77
2022/05/15 00:26:45;;;;;;;36.97;10.82;;;12.20;99.90;;;;;;5052430;28;20030;-77
2022/05/15 00:29:11;;;;;;;32.15;10.00;;;12.20;99.90;;;;;;5048082;28;20030;-78
2022/05/15 00:31:37;;;;;;;31.67;9.68;;;12.10;99.90;;;;;;5037055;28;20033;-77
2022/05/15 00:34:03;;;;;;;37.67;10.75;;;12.10;99.90;;;;;;5037690;28;20394;-77
2022/05/15 00:36:29;;;;;;;30.00;10.00;;;12.00;99.90;;;;;;5035129;28;20029;-77
2022/05/15 00:38:54;;;;;;;32.25;9.88;;;12.00;99.90;;;;;;5035072;28;20059;-77
2022/05/15 00:41:20;;;;;;;32.85;10.57;;;11.90;99.90;;;;;;5035230;28;20033;-78
2022/05/15 00:43:56;;;;;;;40.17;10.40;;;11.90;99.90;;;;;;5036048;28;20029;-77
2022/05/15 00:46:32;;;;;;;36.00;10.68;;;11.90;99.90;;;;;;5038413;28;20022;-77
2022/05/15 00:49:01;;;;;;;37.33;11.02;;;11.90;99.90;;;;;;5051195;28;20033;-77
2022/05/15 00:51:35;;;;;;;36.28;10.43;;;11.90;99.90;;;;;;5036526;28;20434;-77
2022/05/15 00:54:23;;;;;;;35.15;10.23;;;11.80;99.90;;;;;;5036806;28;20022;-78
2022/05/15 00:57:09;;;;;;;37.85;10.65;;;11.80;99.90;;;;;;5038005;28;20033;-77
2022/05/15 00:59:40;;;;;;;28.60;9.77;;;11.80;99.90;;;;;;5042718;28;20029;-76
2022/05/15 01:02:09;;;;;;;34.47;10.25;;;11.80;99.90;;;;;;5042926;28;20049;-77
2022/05/15 01:04:35;;;;;;;36.75;10.52;;;11.80;99.90;;;;;;5043994;28;20040;-76
2022/05/15 01:07:07;;;;;;;37.42;10.23;;;11.80;99.90;;;;;;5083051;28;20401;-77
2022/05/15 01:09:32;;;;;;;31.00;10.38;;;11.70;99.90;;;;;;5080684;28;20037;-78
2022/05/15 01:12:01;;;;;;;32.53;9.57;;;11.70;99.90;;;;;;5082509;28;20078;-77
2022/05/15 01:14:27;;;;;;;26.00;9.27;;;11.60;99.90;;;;;;5082679;28;20398;-77
2022/05/15 01:16:53;;;;;;;31.15;9.73;;;11.60;99.90;;;;;;5080252;28;20114;-77
2022/05/15 01:19:33;;;;;;;35.35;9.35;;;11.60;99.90;;;;;;5089480;22;20045;-73
2022/05/15 01:22:00;;;;;;;30.10;9.57;;;11.50;99.90;;;;;;5050594;28;20079;-74
2022/05/15 01:24:26;;;;;;;29.02;9.43;;;11.50;99.90;;;;;;5050092;28;20109;-73
2022/05/15 01:26:52;;;;;;;29.13;9.88;;;11.40;99.90;;;;;;5048360;28;20087;-74
2022/05/15 01:29:26;;;;;;;32.67;9.10;;;11.40;99.90;;;;;;5049049;28;20029;-74
2022/05/15 01:31:52;;;;;;;33.90;9.52;;;11.40;99.90;;;;;;5048930;28;20036;-74
2022/05/15 01:34:18;;;;;;;22.92;8.43;;;11.40;99.90;;;;;;5049100;28;20021;-75
2022/05/15 01:36:43;;;;;;;27.48;9.27;;;11.40;99.90;;;;;;5048713;28;20044;-76
2022/05/15 01:39:09;;;;;;;32.50;9.00;;;11.30;99.90;;;;;;5048873;28;20047;-74
2022/05/15 01:41:34;;;;;;;32.53;10.60;;;11.30;99.90;;;;;;5048813;28;20382;-74
2022/05/15 01:44:00;;;;;;;30.85;9.20;;;11.20;99.90;;;;;;5047954;28;20068;-74
2022/05/15 01:46:28;;;;;;;31.98;9.70;;;11.20;99.90;;;;;;5048976;28;20390;-74
2022/05/15 01:48:55;;;;;;;28.98;9.15;;;11.20;99.90;;;;;;5049227;28;20382;-75
2022/05/15 01:51:22;;;;;;;34.92;9.63;;;11.10;99.90;;;;;;5048847;28;20385;-75
2022/05/15 01:53:47;;;;;;;30.85;9.82;;;11.10;99.90;;;;;;5048888;28;20025;-75
2022/05/15 01:56:13;;;;;;;28.83;8.85;;;11.10;99.90;;;;;;5048231;28;20028;-73
2022/05/15 01:58:39;;;;;;;36.80;9.18;;;11.00;99.90;;;;;;5048691;28;20037;-74
2022/05/15 02:01:05;;;;;;;32.20;9.43;;;11.00;99.90;;;;;;5048632;28;20500;-74
2022/05/15 02:03:30;;;;;;;32.45;9.50;;;11.00;99.90;;;;;;5048425;28;20021;-74
2022/05/15 02:05:56;;;;;;;30.85;9.35;;;11.00;99.90;;;;;;5048011;28;20029;-75
2022/05/15 02:08:22;;;;;;;35.10;9.13;;;11.00;99.90;;;;;;5049132;28;20029;-75
2022/05/15 02:10:48;;;;;;;24.85;8.77;;;10.90;99.90;;;;;;5046851;28;20025;-74
2022/05/15 02:13:14;;;;;;;28.02;8.82;;;10.90;99.90;;;;;;5055703;28;20494;-74
2022/05/15 02:15:39;;;;;;;32.05;9.55;;;10.90;99.90;;;;;;5054592;28;20021;-75
2022/05/15 02:18:06;;;;;;;28.00;8.93;;;10.90;99.90;;;;;;5039395;28;20040;-73
2022/05/15 02:20:31;;;;;;;28.83;8.50;;;10.90;99.90;;;;;;5034737;28;20033;-74
2022/05/15 02:22:57;;;;;;;35.05;9.18;;;10.90;99.90;;;;;;5034842;28;20168;-74
2022/05/15 02:25:23;;;;;;;31.17;8.88;;;10.90;99.90;;;;;;5034426;28;20025;-74
2022/05/15 02:27:50;;;;;;;29.20;8.93;;;10.80;99.90;;;;;;5040620;28;20174;-74
2022/05/15 02:30:17;;;;;;;23.48;8.50;;;10.90;99.90;;;;;;5035203;28;20135;-73
2022/05/15 02:32:43;;;;;;;33.28;9.50;;;10.80;99.90;;;;;;5035402;28;20167;-74
2022/05/15 02:35:09;;;;;;;35.47;9.00;;;10.80;99.90;;;;;;5034680;28;20506;-74
2022/05/15 02:37:36;;;;;;;28.83;8.82;;;10.80;99.90;;;;;;5038995;28;20054;-75
2022/05/15 02:40:03;;;;;;;34.55;9.15;;;10.80;99.90;;;;;;5034719;28;20033;-73
2022/05/15 02:42:29;;;;;;;36.85;9.60;;;10.80;99.90;;;;;;5034438;28;20116;-74
2022/05/15 02:44:54;;;;;;;31.38;8.70;;;10.70;99.90;;;;;;5034609;28;20109;-73
2022/05/15 02:47:20;;;;;;;36.47;10.68;;;10.70;99.90;;;;;;5034841;28;20385;-74
2022/05/15 02:52:29;;;;;;;28.23;9.10;;;10.70;99.90;;;;;;5035227;28;20537;-74
2022/05/15 02:54:55;;;;;;;28.42;9.45;;;10.70;99.90;;;;;;5034029;28;20268;-73
2022/05/15 02:57:20;;;;;;;31.52;9.43;;;10.70;99.90;;;;;;5033764;28;20053;-73
2022/05/15 02:59:46;;;;;;;35.47;9.75;;;10.60;99.90;;;;;;5033907;28;20032;-74
2022/05/15 03:02:12;;;;;;;30.15;9.43;;;10.60;99.90;;;;;;5033988;28;20033;-72
2022/05/15 03:04:37;;;;;;;35.13;9.43;;;10.60;99.90;;;;;;5034197;28;20056;-72
2022/05/15 03:07:05;;;;;;;35.88;9.80;;;10.60;99.90;;;;;;5033768;28;20022;-72
2022/05/15 03:09:31;;;;;;;31.92;9.85;;;10.60;99.90;;;;;;5033811;28;20033;-72
2022/05/15 03:11:56;;;;;;;43.55;10.80;;;10.60;99.90;;;;;;5033954;28;20033;-73
2022/05/15 03:14:22;;;;;;;58.65;13.68;;;10.50;99.90;;;;;;5033907;28;20045;-73
2022/05/15 03:16:47;;;;;;;69.90;15.38;;;10.60;99.90;;;;;;5033555;28;20032;-74
2022/05/15 03:19:13;;;;;;;80.35;17.95;;;10.60;99.90;;;;;;5033739;28;20616;-74
2022/05/15 03:21:38;;;;;;;82.05;19.90;;;10.60;99.90;;;;;;5033812;28;20029;-74
2022/05/15 03:24:10;;;;;;;71.80;18.17;;;10.50;99.90;;;;;;5033635;28;20022;-74
2022/05/15 03:26:40;;;;;;;64.40;16.98;;;10.50;99.90;;;;;;5032367;28;20063;-73
2022/05/15 03:29:07;;;;;;;54.47;15.73;;;10.50;99.90;;;;;;5032387;28;20029;-73
2022/05/15 03:31:36;;;;;;;61.80;16.63;;;10.50;99.90;;;;;;5033659;28;20021;-74
2022/05/15 03:34:03;;;;;;;62.20;18.13;;;10.40;99.90;;;;;;5033392;28;20045;-73
2022/05/15 03:36:28;;;;;;;56.17;17.75;;;10.40;99.90;;;;;;5033230;28;20032;-73
2022/05/15 03:38:54;;;;;;;37.83;15.18;;;10.40;99.90;;;;;;5033311;28;20033;-73
2022/05/15 03:41:20;;;;;;;42.35;14.98;;;10.40;99.90;;;;;;5033905;28;20030;-73
2022/05/15 03:43:45;;;;;;;50.30;14.77;;;10.30;99.90;;;;;;5033175;28;20047;-73
2022/05/15 03:46:11;;;;;;;52.55;16.02;;;10.30;99.90;;;;;;5032853;28;20076;-73
2022/05/15 03:48:36;;;;;;;47.25;14.43;;;10.30;99.90;;;;;;5033134;28;20474;-73
2022/05/15 03:51:03;;;;;;;40.13;13.82;;;10.30;99.90;;;;;;5033005;28;20032;-72
2022/05/15 03:53:29;;;;;;;35.05;13.13;;;10.30;99.90;;;;;;5032851;28;20470;-74
2022/05/15 03:55:58;;;;;;;43.78;13.73;;;10.30;99.90;;;;;;5032807;28;20041;-75
2022/05/15 03:58:25;;;;;;;37.00;13.63;;;10.20;99.90;;;;;;5036365;28;20181;-76
2022/05/15 04:00:51;;;;;;;38.50;13.05;;;10.30;99.90;;;;;;5034098;28;20037;-74
2022/05/15 04:03:17;;;;;;;34.20;13.13;;;10.20;99.90;;;;;;5032788;28;20107;-75
2022/05/15 04:05:43;;;;;;;38.15;13.68;;;10.20;99.90;;;;;;5031443;28;20455;-75
2022/05/15 04:08:08;;;;;;;38.80;14.15;;;10.20;99.90;;;;;;5032671;28;20037;-74
2022/05/15 04:10:35;;;;;;;44.55;14.35;;;10.10;99.90;;;;;;5032570;28;20029;-74
2022/05/15 04:13:00;;;;;;;42.03;15.68;;;10.10;99.90;;;;;;5032568;28;20505;-74
2022/05/15 04:15:26;;;;;;;39.17;14.13;;;10.10;99.90;;;;;;5032329;28;20029;-74
2022/05/15 04:17:51;;;;;;;40.40;13.50;;;10.10;99.90;;;;;;5032640;28;20057;-75
2022/05/15 04:20:20;;;;;;;31.52;13.18;;;10.10;99.90;;;;;;5032794;28;20418;-75
2022/05/15 04:22:45;;;;;;;41.38;13.95;;;10.00;99.90;;;;;;5032880;28;20029;-75
2022/05/15 04:25:12;;;;;;;33.10;13.70;;;10.00;99.90;;;;;;5033805;28;20108;-75
2022/05/15 04:27:39;;;;;;;26.27;12.38;;;10.10;99.90;;;;;;5037441;28;20021;-77
2022/05/15 04:30:06;;;;;;;32.33;13.13;;;10.10;99.90;;;;;;5033262;28;20022;-75
2022/05/15 04:32:32;;;;;;;33.08;13.30;;;10.10;99.90;;;;;;5033125;28;20030;-76
2022/05/15 04:34:57;;;;;;;24.10;11.35;;;10.20;99.90;;;;;;5033275;28;20025;-76
2022/05/15 04:37:23;;;;;;;27.13;12.60;;;10.20;99.90;;;;;;5032735;28;20053;-76
2022/05/15 04:39:48;;;;;;;25.08;11.75;;;10.20;99.90;;;;;;5032699;28;20033;-77
2022/05/15 04:42:14;;;;;;;28.02;12.70;;;10.30;99.90;;;;;;5032917;28;20047;-78
2022/05/15 04:44:39;;;;;;;25.38;12.63;;;10.30;99.90;;;;;;5033450;28;20028;-76
2022/05/15 04:47:05;;;;;;;30.65;14.40;;;10.40;99.90;;;;;;5032568;28;20590;-77
2022/05/15 04:49:31;;;;;;;29.55;13.13;;;10.40;99.90;;;;;;5031527;28;20053;-78
2022/05/15 04:51:56;;;;;;;24.73;12.32;;;10.50;99.90;;;;;;5032339;28;20116;-77
2022/05/15 04:54:22;;;;;;;25.48;12.60;;;10.50;99.90;;;;;;5032753;28;20068;-77
2022/05/15 04:56:47;;;;;;;25.23;12.60;;;10.60;99.90;;;;;;5032862;28;20037;-77
2022/05/15 04:59:13;;;;;;;27.20;12.75;;;10.60;99.90;;;;;;5032439;28;20037;-78
2022/05/15 05:01:38;;;;;;;28.63;12.63;;;10.60;99.90;;;;;;5031820;28;20052;-78
2022/05/15 05:04:04;;;;;;;24.15;12.18;;;10.70;99.90;;;;;;5032569;28;20036;-78
2022/05/15 05:06:30;;;;;;;24.08;11.80;;;10.70;99.90;;;;;;5032464;28;20033;-78
2022/05/15 05:08:55;;;;;;;18.85;10.38;;;10.70;99.90;;;;;;5032204;28;20463;-74
2022/05/15 05:11:21;;;;;;;19.48;9.70;;;10.80;99.90;;;;;;5031782;28;20029;-75
2022/05/15 05:13:47;;;;;;;20.45;9.25;;;10.90;99.90;;;;;;5030270;28;20021;-75
2022/05/15 05:16:13;;;;;;;21.52;8.82;;;10.90;99.90;;;;;;5030436;28;20021;-75
2022/05/15 05:18:39;;;;;;;17.55;8.45;;;11.00;99.90;;;;;;5030784;28;20042;-74
2022/05/15 05:21:05;;;;;;;16.77;8.77;;;11.00;99.90;;;;;;5030990;28;20519;-74
2022/05/15 05:23:31;;;;;;;18.80;9.10;;;11.10;99.90;;;;;;5030835;28;20068;-73
2022/05/15 05:25:57;;;;;;;17.42;8.88;;;11.10;99.90;;;;;;5029562;28;20490;-73
2022/05/15 05:28:23;;;;;;;16.52;7.90;;;11.20;99.90;;;;;;5030821;28;20398;-73
2022/05/15 05:30:49;;;;;;;21.88;9.50;;;11.20;99.90;;;;;;5031267;28;20036;-73
2022/05/15 05:33:14;;;;;;;22.75;10.60;;;11.30;99.90;;;;;;5030829;28;20117;-73
2022/05/15 05:35:41;;;;;;;21.42;9.05;;;11.30;99.90;;;;;;5030098;28;20036;-74
2022/05/15 05:38:07;;;;;;;16.05;8.57;;;11.30;99.90;;;;;;5030642;28;20026;-74
2022/05/15 05:40:33;;;;;;;17.77;8.45;;;11.20;99.90;;;;;;5030622;28;20513;-75
2022/05/15 05:42:59;;;;;;;17.80;9.07;;;11.30;99.90;;;;;;5030703;28;20033;-74
2022/05/15 05:45:24;;;;;;;20.10;8.52;;;11.30;99.90;;;;;;5029517;28;20029;-74
2022/05/15 05:47:51;;;;;;;15.23;8.00;;;11.30;99.90;;;;;;5031642;28;20026;-74
2022/05/15 05:50:19;;;;;;;16.65;8.75;;;11.30;99.90;;;;;;5031502;28;20030;-74
2022/05/15 05:52:45;;;;;;;17.08;8.07;;;11.30;99.90;;;;;;5033424;28;20224;-74
2022/05/15 05:55:14;;;;;;;13.93;7.20;;;11.30;99.90;;;;;;5035855;28;20033;-73
2022/05/15 05:57:41;;;;;;;15.05;7.75;;;11.40;99.90;;;;;;5034779;28;20037;-73
2022/05/15 06:00:10;;;;;;;13.82;7.30;;;11.50;99.90;;;;;;5036310;28;20033;-75
2022/05/15 06:02:35;;;;;;;18.73;7.80;;;11.50;99.90;;;;;;5036757;28;20033;-75
2022/05/15 06:05:01;;;;;;;19.95;7.82;;;11.60;99.90;;;;;;5035450;28;20117;-75
2022/05/15 06:07:28;;;;;;;23.98;8.82;;;11.70;99.90;;;;;;5034749;28;20382;-74
2022/05/15 06:09:54;;;;;;;19.98;7.95;;;11.80;99.90;;;;;;5036232;28;20503;-74
2022/05/15 06:12:23;;;;;;;24.35;8.18;;;11.90;99.90;;;;;;5034972;28;20025;-74
2022/05/15 06:14:49;;;;;;;23.23;7.53;;;12.00;99.90;;;;;;5034819;28;20022;-74
2022/05/15 06:17:18;;;;;;;23.25;7.88;;;12.20;99.90;;;;;;5034666;28;20032;-74
2022/05/15 06:19:44;;;;;;;27.90;7.78;;;12.30;99.90;;;;;;5034694;28;20029;-74
2022/05/15 06:22:09;;;;;;;28.98;8.52;;;12.30;99.90;;;;;;5034493;28;20505;-75
2022/05/15 06:24:35;;;;;;;34.00;7.93;;;12.50;99.90;;;;;;5034561;28;20423;-75
2022/05/15 06:27:02;;;;;;;26.05;10.75;;;12.60;99.90;;;;;;5034061;28;20042;-74
2022/05/15 06:29:28;;;;;;;40.60;11.85;;;12.70;99.90;;;;;;5034651;28;20033;-75
2022/05/15 06:31:54;;;;;;;34.13;8.93;;;12.70;99.90;;;;;;5034489;28;20026;-76
2022/05/15 06:34:20;;;;;;;34.47;9.32;;;12.80;99.90;;;;;;5034621;28;20033;-74
2022/05/15 06:36:45;;;;;;;34.90;8.48;;;12.80;99.90;;;;;;5034063;28;20038;-75
2022/05/15 06:39:11;;;;;;;30.75;7.60;;;12.90;99.90;;;;;;5034510;28;20102;-75
2022/05/15 06:41:37;;;;;;;30.98;7.53;;;12.90;99.90;;;;;;5034497;28;20482;-74
2022/05/15 06:44:04;;;;;;;26.45;7.10;;;13.00;99.90;;;;;;5034631;28;20022;-75
2022/05/15 06:46:30;;;;;;;23.35;6.57;;;13.10;99.90;;;;;;5037452;28;20033;-75
2022/05/15 06:48:56;;;;;;;21.13;5.95;;;13.20;99.90;;;;;;5035548;28;20115;-76
2022/05/15 06:51:22;;;;;;;21.92;6.05;;;13.30;99.90;;;;;;5034601;28;20093;-74
2022/05/15 06:53:48;;;;;;;19.15;6.13;;;13.50;99.90;;;;;;5034301;28;20021;-74
2022/05/15 06:58:59;;;;;;;19.85;5.13;;;13.60;99.90;;;;;;5035169;28;20112;-75
2022/05/15 07:01:25;;;;;;;21.55;4.85;;;13.70;99.90;;;;;;5034912;28;20033;-74
2022/05/15 07:03:50;;;;;;;17.73;4.28;;;13.80;99.90;;;;;;5034691;28;20021;-73
2022/05/15 07:06:16;;;;;;;20.58;5.03;;;13.90;99.90;;;;;;5034896;28;20462;-73
2022/05/15 07:08:42;;;;;;;12.32;3.78;;;14.00;99.90;;;;;;5034091;28;20105;-77
2022/05/15 07:11:10;;;;;;;13.77;3.60;;;14.10;99.90;;;;;;5036262;28;20381;-78
2022/05/15 07:13:36;;;;;;;11.23;3.45;;;14.20;99.90;;;;;;5042407;28;20044;-76
2022/05/15 07:16:01;;;;;;;17.27;3.40;;;14.30;99.90;;;;;;5039648;28;20533;-76
2022/05/15 07:18:27;;;;;;;18.33;3.45;;;14.40;99.90;;;;;;5034178;28;20030;-78
2022/05/15 07:20:53;;;;;;;13.82;3.47;;;14.40;99.90;;;;;;5035580;28;20069;-75
2022/05/15 07:23:20;;;;;;;12.23;3.50;;;14.60;99.90;;;;;;5035956;28;20033;-76
2022/05/15 07:25:47;;;;;;;11.85;3.22;;;14.60;99.90;;;;;;5036069;28;20030;-76
2022/05/15 07:28:13;;;;;;;11.43;2.75;;;14.70;99.90;;;;;;5034313;28;20036;-74
2022/05/15 07:30:38;;;;;;;14.10;2.97;;;14.80;99.90;;;;;;5034502;28;20021;-73
2022/05/15 07:33:04;;;;;;;11.75;3.15;;;14.90;99.90;;;;;;5032289;28;20067;-73
2022/05/15 07:35:30;;;;;;;8.20;2.88;;;15.00;99.90;;;;;;5033459;28;20026;-73
2022/05/15 07:37:56;;;;;;;14.00;3.58;;;15.10;99.90;;;;;;5033748;28;20029;-74
2022/05/15 07:40:21;;;;;;;11.57;3.03;;;15.30;99.90;;;;;;5033922;28;20183;-74
2022/05/15 07:42:47;;;;;;;11.57;3.25;;;15.50;99.90;;;;;;5034698;28;20064;-74
2022/05/15 07:45:14;;;;;;;6.95;2.08;;;15.50;99.90;;;;;;5033225;28;20038;-74
2022/05/15 07:47:40;;;;;;;11.73;2.65;;;15.60;99.90;;;;;;5032903;28;20483;-74
2022/05/15 07:50:07;;;;;;;11.13;2.17;;;15.60;99.90;;;;;;5033206;28;20022;-74
2022/05/15 07:52:33;;;;;;;9.15;1.88;;;15.70;99.90;;;;;;5033741;28;20037;-72
2022/05/15 07:54:59;;;;;;;7.30;1.90;;;15.70;99.90;;;;;;5034400;28;20390;-73
2022/05/15 07:57:24;;;;;;;12.73;2.17;;;15.90;99.90;;;;;;5039486;28;20030;-72
2022/05/15 07:59:50;;;;;;;4.85;1.63;;;16.00;99.90;;;;;;5033601;28;20030;-73
2022/05/15 08:02:17;;;;;;;5.80;1.83;;;16.10;99.90;;;;;;5034885;28;20641;-72
2022/05/15 08:10:11;;;;;;;7.70;1.83;;;16.30;99.90;;;;;;5033373;28;20083;-73
2022/05/15 08:12:37;;;;;;;4.75;1.60;;;16.50;99.90;;;;;;5031612;28;20021;-75
2022/05/15 08:15:06;;;;;;;7.93;2.00;;;16.60;99.90;;;;;;5030428;28;20367;-73
2022/05/15 08:17:31;;;;;;;6.75;2.42;;;16.70;99.90;;;;;;5031471;28;20025;-74
2022/05/15 08:23:33;;;;;;;8.15;2.33;;;17.00;99.90;;;;;;5033076;28;20139;-75
2022/05/15 08:25:45;;;;;;;5.68;1.77;;;17.00;99.90;;;;;;5031344;28;20057;-75
2022/05/15 08:28:11;;;;;;;5.55;1.77;;;17.20;99.90;;;;;;5039848;28;20026;-75
2022/05/15 08:30:37;;;;;;;8.23;1.85;;;17.30;99.90;;;;;;5033814;28;20037;-76
2022/05/15 08:33:04;;;;;;;5.65;1.42;;;17.30;99.90;;;;;;5035486;28;20103;-75
2022/05/15 08:35:30;;;;;;;6.30;1.92;;;17.40;99.90;;;;;;5032065;28;20028;-76
2022/05/15 08:37:57;;;;;;;6.45;1.50;;;17.40;99.90;;;;;;5036939;28;20035;-74
2022/05/15 08:40:30;;;;;;;5.88;1.67;;;17.50;99.90;;;;;;5037052;28;20457;-76
2022/05/15 08:42:58;;;;;;;4.72;1.80;;;17.60;99.90;;;;;;5037844;28;20028;-77
2022/05/15 08:45:29;;;;;;;6.10;1.60;;;17.60;99.90;;;;;;5033317;28;20031;-75
2022/05/15 08:48:12;;;;;;;2.72;1.30;;;17.70;99.90;;;;;;5033009;28;20031;-76
2022/05/15 08:50:43;;;;;;;6.50;1.42;;;17.70;99.90;;;;;;5031882;28;20032;-76
2022/05/15 08:53:15;;;;;;;6.32;1.60;;;17.80;99.90;;;;;;5030150;28;20386;-76
2022/05/15 08:55:51;;;;;;;4.97;1.40;;;17.90;99.90;;;;;;5032398;28;20033;-75
2022/05/15 08:58:29;;;;;;;4.72;1.48;;;17.90;99.90;;;;;;5031869;28;20112;-73
2022/05/15 09:00:55;;;;;;;3.55;1.25;;;17.90;99.90;;;;;;5030149;28;20435;-73
2022/05/15 09:03:27;;;;;;;4.82;1.52;;;17.90;99.90;;;;;;5030354;28;20033;-74
2022/05/15 09:06:07;;;;;;;5.15;1.30;;;17.90;99.90;;;;;;5032486;28;20065;-73
2022/05/15 09:08:55;;;;;;;5.05;1.30;;;18.10;99.90;;;;;;5034739;28;20124;-73
2022/05/15 09:11:53;;;;;;;5.72;1.60;;;18.20;99.90;;;;;;5035492;28;20113;-72
2022/05/15 09:14:49;;;;;;;5.65;2.33;;;18.40;99.90;;;;;;5032173;28;20100;-73
2022/05/15 09:17:30;;;;;;;3.90;1.60;;;18.50;99.90;;;;;;5030717;28;20370;-73
2022/05/15 09:19:58;;;;;;;5.13;1.60;;;18.70;99.90;;;;;;5031031;28;20058;-74
2022/05/15 09:22:33;;;;;;;4.80;1.35;;;18.80;99.90;;;;;;5031829;28;20032;-74
2022/05/15 09:25:06;;;;;;;8.57;2.83;;;19.00;99.90;;;;;;5031693;28;20682;-73
2022/05/15 09:27:31;;;;;;;12.88;1.80;;;19.10;99.90;;;;;;5032877;28;20052;-73
2022/05/15 09:30:00;;;;;;;6.68;1.65;;;19.30;99.90;;;;;;5035594;28;20072;-76
2022/05/15 09:32:41;;;;;;;6.15;1.80;;;19.40;99.90;;;;;;5034722;28;20026;-73
2022/05/15 09:35:33;;;;;;;4.95;1.95;;;19.50;99.20;;;;;;5034037;28;20017;-73
2022/05/15 09:43:31;;;;;;;2.75;1.15;;;19.70;98.60;;;;;;5037007;28;20028;-73
2022/05/15 09:43:37;;;;;;;4.38;1.30;;;19.80;98.40;;;;;;5047216;28;20212;-73
2022/05/15 09:46:12;;;;;;;13.75;1.50;;;19.90;98.30;;;;;;5037990;28;20029;-72
2022/05/15 09:49:06;;;;;;;7.60;1.90;;;19.90;97.50;;;;;;5036433;28;20024;-75
2022/05/15 09:51:40;;;;;;;4.68;1.50;;;19.90;97.60;;;;;;5025064;28;20038;-72
2022/05/15 09:54:07;;;;;;;11.65;2.38;;;19.90;97.10;;;;;;5035194;28;20504;-74
2022/05/15 09:56:37;;;;;;;8.10;2.03;;;20.00;96.40;;;;;;5033044;28;20045;-74
2022/05/15 09:59:05;;;;;;;6.05;1.65;;;20.00;96.50;;;;;;5037242;28;20510;-73
2022/05/15 10:01:48;;;;;;;4.70;1.70;;;20.10;96.00;;;;;;5038475;28;20053;-73
2022/05/15 10:04:24;;;;;;;5.82;1.50;;;20.10;96.00;;;;;;5041080;28;20052;-74
2022/05/15 10:06:56;;;;;;;5.68;1.63;;;20.20;95.80;;;;;;5036785;28;20033;-72
2022/05/15 10:09:31;;;;;;;4.35;1.40;;;20.30;95.30;;;;;;5036970;28;20021;-73
2022/05/15 10:12:02;;;;;;;;;;;20.30;95.00;;;;;;5034649;28;20021;-73
2022/05/15 10:14:50;;;;;;;10.43;4.63;;;20.40;94.60;;;;;;5040567;28;19959;-73
2022/05/15 10:17:16;;;;;;;6.80;2.00;;;20.50;94.20;;;;;;5046870;28;20052;-72
2022/05/15 10:19:47;;;;;;;7.60;1.85;;;20.50;93.60;;;;;;5044807;28;20037;-74
2022/05/15 10:22:22;;;;;;;10.45;2.13;;;20.50;93.40;;;;;;5039983;28;20061;-73
2022/05/15 10:24:48;;;;;;;;;;;20.50;93.90;;;;;;5035101;28;20021;-74
2022/05/15 10:27:27;;;;;;;6.05;2.30;;;20.60;93.80;;;;;;5033547;28;19916;-72
2022/05/15 10:29:55;;;;;;;5.63;1.90;;;20.70;93.00;;;;;;5035254;28;20025;-72
2022/05/15 10:32:36;;;;;;;8.57;1.95;;;20.80;92.90;;;;;;5033965;28;20025;-75
2022/05/15 10:35:01;;;;;;;6.72;1.80;;;20.80;92.70;;;;;;5034075;28;20084;-73
2022/05/15 10:37:49;;;;;;;7.15;1.85;;;20.70;92.70;;;;;;5032512;28;20017;-74
2022/05/15 10:40:29;;;;;;;5.97;2.00;;;20.70;92.60;;;;;;5035420;28;20025;-72
2022/05/15 10:43:20;;;;;;;5.78;1.50;;;20.80;92.60;;;;;;5033994;28;20027;-73
2022/05/15 10:45:50;;;;;;;7.72;1.88;;;21.00;92.30;;;;;;5033247;28;20029;-74
2022/05/15 10:48:48;;;;;;;5.00;1.83;;;21.10;91.90;;;;;;5033909;28;20037;-74
2022/05/15 10:51:27;;;;;;;4.00;1.63;;;21.10;91.60;;;;;;5035819;28;20036;-74
2022/05/15 10:57:26;;;;;;;4.53;1.40;;;21.20;91.30;;;;;;5032937;28;20485;-74
2022/05/15 11:00:31;;;;;;;5.35;1.63;;;21.30;91.00;;;;;;5035578;28;20026;-73
2022/05/15 11:03:32;;;;;;;4.18;1.50;;;21.40;91.10;;;;;;5035400;28;20486;-73
2022/05/15 11:06:24;;;;;;;6.88;2.63;;;21.60;91.20;;;;;;5032481;28;20068;-72
2022/05/15 11:09:16;;;;;;;5.68;1.95;;;21.70;91.20;;;;;;5031929;28;20041;-72
2022/05/15 11:11:50;;;;;;;5.20;1.73;;;21.80;91.40;;;;;;5012834;28;20037;-75
2022/05/15 11:14:33;;;;;;;6.75;2.50;;;21.80;91.00;;;;;;5013364;28;20045;-73
2022/05/15 11:17:01;;;;;;;11.88;4.38;;;22.00;91.10;;;;;;5012591;28;20109;-74
2022/05/15 11:19:33;;;;;;;8.82;2.42;;;21.90;88.20;;;;;;5014639;28;20034;-74
2022/05/15 11:22:14;;;;;;;8.48;3.50;;;21.80;88.90;;;;;;5015002;28;20105;-74
2022/05/15 11:24:59;;;;;;;7.90;2.78;;;21.90;89.00;;;;;;5014131;28;20029;-76
2022/05/15 11:27:42;;;;;;;7.07;1.75;;;21.80;85.20;;;;;;5013195;28;20091;-73
2022/05/15 11:30:29;;;;;;;7.57;2.05;;;21.80;85.70;;;;;;5013525;28;20022;-75
2022/05/15 11:32:55;;;;;;;4.65;1.58;;;21.90;85.30;;;;;;5014061;28;20057;-73
2022/05/15 11:35:21;;;;;;;5.03;1.83;;;21.90;85.90;;;;;;5013525;28;20387;-74
2022/05/15 11:38:07;;;;;;;8.75;1.80;;;22.00;86.00;;;;;;5014997;28;20021;-72
2022/05/15 11:40:42;;;;;;;3.40;1.35;;;22.10;86.10;;;;;;5013386;28;20022;-73
2022/05/15 11:43:26;;;;;;;3.50;1.63;;;22.20;85.20;;;;;;5013452;28;20093;-74
2022/05/15 11:45:53;;;;;;;3.22;1.30;;;22.40;84.60;;;;;;5013546;28;20137;-73
2022/05/15 11:48:30;;;;;;;5.68;2.28;;;22.40;82.50;;;;;;5015440;28;20050;-75
2022/05/15 11:51:02;;;;;;;4.60;1.60;;;22.30;82.90;;;;;;5019602;28;20025;-74
2022/05/15 11:53:32;;;;;;;7.22;1.38;;;22.20;81.20;;;;;;5014975;28;20057;-74
2022/05/15 11:56:15;;;;;;;3.22;1.50;;;22.20;81.70;;;;;;5014355;28;20084;-74
2022/05/15 11:58:41;;;;;;;7.80;3.17;;;22.20;82.20;;;;;;5017296;28;20030;-74
2022/05/15 12:01:17;;;;;;;5.05;1.70;;;22.20;82.00;;;;;;5018846;28;20553;-73
2022/05/15 12:04:04;;;;;;;4.80;1.67;;;22.30;81.70;;;;;;5017931;28;20498;-73
2022/05/15 12:06:44;;;;;;;3.08;1.05;;;22.40;81.40;;;;;;5013700;28;20025;-74
2022/05/15 12:09:15;;;;;;;4.07;1.30;;;22.50;81.00;;;;;;5021948;28;20105;-74
2022/05/15 12:11:46;;;;;;;4.40;1.30;;;22.60;79.90;;;;;;5024600;28;20026;-73
2022/05/15 12:14:26;;;;;;;3.00;1.30;;;22.60;79.20;;;;;;5021926;28;20018;-74
2022/05/15 12:17:00;;;;;;;7.20;1.85;;;22.70;79.30;;;;;;5021341;28;20034;-74
2022/05/15 12:19:31;;;;;;;5.10;2.38;;;22.80;78.30;;;;;;5019669;28;20513;-74
2022/05/15 12:22:00;;;;;;;6.32;2.00;;;22.80;77.40;;;;;;5019323;28;20135;-75
2022/05/15 12:24:32;;;;;;;5.03;1.63;;;22.90;77.80;;;;;;5023400;28;20042;-75
2022/05/15 12:27:19;;;;;;;4.90;1.75;;;22.90;76.80;;;;;;5006594;28;20026;-75
2022/05/15 12:29:58;;;;;;;5.57;1.40;;;23.00;76.30;;;;;;5019625;28;20052;-72
2022/05/15 12:32:47;;;;;;;5.38;1.55;;;22.90;76.40;;;;;;5019842;28;20463;-73
2022/05/15 12:35:33;;;;;;;3.15;1.40;;;23.00;75.10;;;;;;5020232;28;20034;-73
2022/05/15 12:38:13;;;;;;;3.95;1.30;;;23.10;75.10;;;;;;5016270;28;20100;-73
2022/05/15 12:40:54;;;;;;;5.03;1.60;;;23.20;74.90;;;;;;5015374;28;20435;-74
2022/05/15 12:43:33;;;;;;;7.70;2.47;;;23.30;74.60;;;;;;5013266;28;20116;-73
2022/05/15 12:46:00;;;;;;;6.63;2.42;;;23.50;74.40;;;;;;5013191;28;20022;-73
2022/05/15 12:48:28;;;;;;;8.70;4.90;;;23.60;74.90;;;;;;5015552;28;20309;-75
2022/05/15 12:51:09;;;;;;;11.02;3.40;;;23.80;73.50;;;;;;5035502;28;20017;-72
2022/05/15 12:53:45;;;;;;;3.58;1.40;;;23.90;73.20;;;;;;5035269;28;20435;-73
2022/05/15 12:56:26;;;;;;;3.80;1.15;;;24.00;73.20;;;;;;5031846;28;20042;-73
2022/05/15 12:58:58;;;;;;;2.13;1.10;;;24.10;72.00;;;;;;5032618;28;20364;-74
2022/05/15 13:01:30;;;;;;;6.47;1.85;;;24.30;71.60;;;;;;5031929;28;20040;-74
2022/05/15 13:03:59;;;;;;;5.20;1.80;;;24.30;70.70;;;;;;5031899;28;20079;-74
2022/05/15 13:06:40;;;;;;;7.60;2.17;;;24.40;70.80;;;;;;5031228;28;20508;-74
2022/05/15 13:09:08;;;;;;;4.72;1.58;;;24.50;69.70;;;;;;5032484;28;20053;-74
2022/05/15 13:11:39;;;;;;;7.05;2.08;;;24.60;70.10;;;;;;5032359;28;20021;-74
2022/05/15 13:14:09;;;;;;;6.25;1.92;;;24.70;69.70;;;;;;5033989;28;20025;-73